Time;durP1;ratioP1;P1;durP2;ratioP2;P2;SDS_P1;SDS_P2;PMS_P1;PMS_P2;Temp;Humidity;BMP_temperature;BMP_pressure;BME280_temperature;BME280_humidity;BME280_pressure;Samples;Min_cycle;Max_cycle;Signal;HPM_P1;HPM_P2
2021/04/27 00:01:45;;;;;;;17.35;7.68;;;;;;;;;;5037409;28;20044;-57
2021/04/27 00:04:11;;;;;;;10.88;3.58;;;;;;;;;;5038750;28;20045;-56
2021/04/27 00:06:37;;;;;;;5.68;1.50;;;;;;;;;;5028382;28;20496;-58
2021/04/27 00:09:05;;;;;;;6.00;1.67;;;;;;;;;;5048154;28;20029;-59
2021/04/27 00:11:31;;;;;;;7.20;1.35;;;;;;;;;;5033773;28;20037;-58
2021/04/27 00:13:57;;;;;;;5.80;1.10;;;;;;;;;;5031105;28;20461;-57
2021/04/27 00:16:23;;;;;;;5.43;1.30;;;;;;;;;;5031124;28;20109;-58
2021/04/27 00:18:49;;;;;;;4.85;1.20;;;;;;;;;;5031859;28;20543;-57
2021/04/27 00:21:14;;;;;;;3.42;1.05;;;;;;;;;;5033550;28;20052;-58
2021/04/27 00:23:40;;;;;;;4.85;1.00;;;;;;;;;;5033366;28;20041;-57
2021/04/27 00:26:06;;;;;;;6.50;1.25;;;;;;;;;;5034899;28;20481;-56
2021/04/27 00:28:32;;;;;;;3.30;1.20;;;;;;;;;;5032554;28;20048;-57
2021/04/27 00:30:58;;;;;;;3.72;0.90;;;;;;;;;;5035627;28;20042;-58
2021/04/27 00:33:24;;;;;;;4.65;1.10;;;;;;;;;;5032882;28;20076;-56
2021/04/27 00:35:50;;;;;;;3.45;1.30;;;;;;;;;;5035547;28;20029;-57
2021/04/27 00:38:16;;;;;;;4.22;1.02;;;;;;;;;;5016539;28;20525;-57
2021/04/27 00:40:42;;;;;;;4.75;1.23;;;;;;;;;;5033592;28;20044;-59
2021/04/27 00:43:08;;;;;;;3.85;1.25;;;;;;;;;;5034106;28;20563;-55
2021/04/27 00:45:34;;;;;;;5.78;1.20;;;;;;;;;;5032351;28;20661;-57
2021/04/27 00:47:59;;;;;;;3.03;1.10;;;;;;;;;;5034203;28;20033;-57
2021/04/27 00:50:36;;;;;;;6.35;1.27;;;;;;;;;;5031498;28;20040;-58
2021/04/27 00:53:03;;;;;;;3.53;0.98;;;;;;;;;;5031106;28;20049;-55
2021/04/27 00:55:29;;;;;;;5.15;1.00;;;;;;;;;;5015300;28;20048;-57
2021/04/27 00:57:55;;;;;;;3.90;0.77;;;;;;;;;;5034341;28;20729;-55
2021/04/27 01:00:23;;;;;;;7.38;1.42;;;;;;;;;;5032639;28;20037;-56
2021/04/27 01:02:49;;;;;;;5.32;1.10;;;;;;;;;;5032566;28;20738;-55
2021/04/27 01:05:16;;;;;;;3.70;0.93;;;;;;;;;;5048546;28;20040;-54
2021/04/27 01:07:50;;;;;;;5.88;1.20;;;;;;;;;;5030332;28;20319;-54
2021/04/27 01:10:18;;;;;;;7.60;1.33;;;;;;;;;;5032843;28;20048;-55
2021/04/27 01:12:48;;;;;;;3.38;1.20;;;;;;;;;;5031217;28;20096;-52
2021/04/27 01:15:16;;;;;;;7.32;1.05;;;;;;;;;;5032334;28;20110;-56
2021/04/27 01:17:42;;;;;;;4.57;1.25;;;;;;;;;;5033295;28;20156;-56
2021/04/27 01:20:10;;;;;;;3.80;0.90;;;;;;;;;;5032845;28;20029;-57
2021/04/27 01:22:57;;;;;;;5.70;1.20;;;;;;;;;;5030521;28;20048;-57
2021/04/27 01:25:26;;;;;;;5.18;1.13;;;;;;;;;;5032860;28;20099;-59
2021/04/27 01:27:52;;;;;;;3.75;1.05;;;;;;;;;;5033045;28;20045;-55
2021/04/27 01:30:18;;;;;;;4.50;1.10;;;;;;;;;;5031837;28;20065;-57
2021/04/27 01:32:44;;;;;;;5.00;1.40;;;;;;;;;;5031067;28;20045;-57
2021/04/27 01:35:10;;;;;;;4.25;0.90;;;;;;;;;;5032095;28;20037;-56
2021/04/27 01:37:37;;;;;;;5.75;1.15;;;;;;;;;;5032821;28;20040;-56
2021/04/27 01:40:03;;;;;;;5.05;1.00;;;;;;;;;;5031771;28;21097;-56
2021/04/27 01:42:29;;;;;;;4.05;1.00;;;;;;;;;;5032057;28;20503;-56
2021/04/27 01:44:55;;;;;;;4.35;1.00;;;;;;;;;;5033494;28;21009;-55
2021/04/27 01:47:21;;;;;;;2.90;0.98;;;;;;;;;;5031648;28;20056;-56
2021/04/27 01:49:47;;;;;;;3.50;1.10;;;;;;;;;;5033258;28;20037;-56
2021/04/27 01:52:13;;;;;;;4.15;1.00;;;;;;;;;;5032792;28;20116;-58
2021/04/27 01:54:39;;;;;;;4.78;1.00;;;;;;;;;;5031534;28;20171;-57
2021/04/27 01:57:05;;;;;;;3.13;0.90;;;;;;;;;;5031231;28;20041;-58
2021/04/27 01:59:30;;;;;;;6.10;1.10;;;;;;;;;;5033517;28;20037;-57
2021/04/27 02:01:56;;;;;;;3.65;1.17;;;;;;;;;;5014411;28;20045;-57
2021/04/27 02:04:26;;;;;;;3.88;1.13;;;;;;;;;;5033882;28;20124;-57
2021/04/27 02:06:52;;;;;;;4.50;0.90;;;;;;;;;;5019947;28;20056;-58
2021/04/27 02:09:20;;;;;;;5.85;1.00;;;;;;;;;;5032227;28;20519;-54
2021/04/27 02:11:48;;;;;;;5.07;0.90;;;;;;;;;;5031903;28;20094;-57
2021/04/27 02:14:15;;;;;;;4.93;1.05;;;;;;;;;;5030678;28;20040;-57
2021/04/27 02:16:43;;;;;;;4.18;0.95;;;;;;;;;;5030873;28;20059;-54
2021/04/27 02:19:10;;;;;;;7.20;0.93;;;;;;;;;;5030393;28;20045;-56
2021/04/27 02:21:37;;;;;;;3.63;0.90;;;;;;;;;;5030506;28;20571;-57
2021/04/27 02:24:03;;;;;;;3.08;0.93;;;;;;;;;;5014983;28;22005;-56
2021/04/27 02:26:30;;;;;;;6.18;1.20;;;;;;;;;;5029223;28;20049;-57
2021/04/27 02:28:56;;;;;;;4.00;1.10;;;;;;;;;;5032320;28;20348;-56
2021/04/27 02:31:22;;;;;;;4.90;1.00;;;;;;;;;;5032293;28;20144;-54
2021/04/27 02:33:48;;;;;;;4.72;1.15;;;;;;;;;;5031866;28;20052;-57
2021/04/27 02:36:14;;;;;;;2.60;0.95;;;;;;;;;;5031006;28;20033;-58
2021/04/27 02:38:41;;;;;;;4.68;1.15;;;;;;;;;;5029774;28;20074;-56
2021/04/27 02:41:07;;;;;;;5.38;1.00;;;;;;;;;;5031794;28;20502;-57
2021/04/27 02:43:36;;;;;;;5.35;1.00;;;;;;;;;;5029807;28;20053;-57
2021/04/27 02:46:02;;;;;;;3.17;1.23;;;;;;;;;;5031472;28;20527;-58
2021/04/27 02:48:28;;;;;;;3.50;1.15;;;;;;;;;;5027909;28;20045;-58
2021/04/27 02:50:55;;;;;;;4.72;1.40;;;;;;;;;;5030922;28;20123;-58
2021/04/27 02:53:21;;;;;;;3.25;1.10;;;;;;;;;;5030089;28;20041;-57
2021/04/27 02:55:48;;;;;;;6.40;0.90;;;;;;;;;;5030142;28;20079;-54
2021/04/27 02:58:15;;;;;;;3.30;1.13;;;;;;;;;;5030547;28;20037;-57
2021/04/27 03:00:41;;;;;;;4.75;1.10;;;;;;;;;;5011973;28;20646;-54
2021/04/27 03:03:07;;;;;;;5.25;1.40;;;;;;;;;;5028308;28;20041;-57
2021/04/27 03:05:33;;;;;;;4.40;1.30;;;;;;;;;;5029767;28;20549;-56
2021/04/27 03:07:59;;;;;;;3.50;1.00;;;;;;;;;;5015742;28;20503;-55
2021/04/27 03:10:25;;;;;;;5.85;1.23;;;;;;;;;;5012185;28;20033;-58
2021/04/27 03:12:51;;;;;;;3.63;1.10;;;;;;;;;;5030949;28;20718;-57
2021/04/27 03:15:17;;;;;;;3.15;0.93;;;;;;;;;;5045579;28;22844;-58
2021/04/27 03:17:43;;;;;;;3.05;1.05;;;;;;;;;;5030533;28;20084;-58
2021/04/27 03:20:10;;;;;;;3.40;1.27;;;;;;;;;;5031149;28;20038;-58
2021/04/27 03:22:36;;;;;;;4.22;1.30;;;;;;;;;;5030550;28;20037;-58
2021/04/27 03:25:03;;;;;;;5.63;1.30;;;;;;;;;;5031404;28;20390;-57
2021/04/27 03:27:29;;;;;;;3.88;1.10;;;;;;;;;;5030715;28;20052;-53
2021/04/27 03:29:55;;;;;;;3.63;1.05;;;;;;;;;;5030438;28;20606;-56
2021/04/27 03:32:21;;;;;;;5.97;1.27;;;;;;;;;;5031965;28;20068;-57
2021/04/27 03:34:47;;;;;;;5.22;1.20;;;;;;;;;;5033430;28;20067;-57
2021/04/27 03:37:13;;;;;;;6.60;1.55;;;;;;;;;;5034941;28;20578;-56
2021/04/27 03:39:39;;;;;;;2.90;1.00;;;;;;;;;;5033560;28;20052;-58
2021/04/27 03:42:05;;;;;;;4.32;1.13;;;;;;;;;;5032588;28;20088;-57
2021/04/27 03:44:31;;;;;;;4.38;1.20;;;;;;;;;;5032778;28;20069;-57
2021/04/27 03:46:58;;;;;;;4.78;1.08;;;;;;;;;;5035555;28;20084;-57
2021/04/27 03:49:24;;;;;;;3.97;1.02;;;;;;;;;;5031646;28;20088;-58
2021/04/27 03:51:54;;;;;;;6.22;1.00;;;;;;;;;;5037109;28;20487;-58
2021/04/27 03:54:20;;;;;;;4.95;1.15;;;;;;;;;;5031805;28;20040;-58
2021/04/27 03:56:46;;;;;;;7.97;1.45;;;;;;;;;;5034099;28;20040;-56
2021/04/27 03:59:12;;;;;;;5.07;1.60;;;;;;;;;;5036053;28;20049;-55
2021/04/27 04:01:38;;;;;;;4.68;1.25;;;;;;;;;;5035996;28;20046;-56
2021/04/27 04:04:04;;;;;;;6.63;1.33;;;;;;;;;;5034246;28;20045;-57
2021/04/27 04:06:30;;;;;;;3.50;1.00;;;;;;;;;;5036027;28;20476;-56
2021/04/27 04:08:57;;;;;;;3.08;0.85;;;;;;;;;;5035987;28;20814;-55
2021/04/27 04:11:23;;;;;;;5.10;1.27;;;;;;;;;;5032819;28;20041;-57
2021/04/27 04:13:49;;;;;;;5.30;0.95;;;;;;;;;;5034659;28;20044;-55
2021/04/27 04:16:14;;;;;;;7.95;1.15;;;;;;;;;;5035262;28;20041;-55
2021/04/27 04:18:40;;;;;;;3.38;1.15;;;;;;;;;;5035942;28;20046;-56
2021/04/27 04:21:06;;;;;;;6.38;1.30;;;;;;;;;;5035152;28;20045;-56
2021/04/27 04:23:32;;;;;;;5.05;1.10;;;;;;;;;;5032951;28;20040;-57
2021/04/27 04:25:58;;;;;;;7.57;1.30;;;;;;;;;;5034345;28;20526;-57
2021/04/27 04:28:24;;;;;;;6.53;0.98;;;;;;;;;;5016790;28;20041;-54
2021/04/27 04:30:50;;;;;;;3.63;1.00;;;;;;;;;;5036122;28;20057;-54
2021/04/27 04:33:16;;;;;;;5.32;1.00;;;;;;;;;;5036018;28;20534;-56
2021/04/27 04:35:42;;;;;;;6.55;1.15;;;;;;;;;;5035439;28;20045;-54
2021/04/27 04:38:08;;;;;;;4.75;1.30;;;;;;;;;;5036155;28;20603;-58
2021/04/27 04:40:35;;;;;;;4.85;1.15;;;;;;;;;;5016618;28;20040;-57
2021/04/27 04:43:00;;;;;;;3.72;1.20;;;;;;;;;;5034725;28;20044;-56
2021/04/27 04:45:26;;;;;;;4.05;0.93;;;;;;;;;;5032427;28;20030;-56
2021/04/27 04:47:53;;;;;;;3.92;1.25;;;;;;;;;;5033983;28;20037;-57
2021/04/27 04:50:19;;;;;;;4.72;1.00;;;;;;;;;;5033165;28;20091;-57
2021/04/27 04:52:45;;;;;;;5.60;1.05;;;;;;;;;;5031430;28;20042;-57
2021/04/27 04:55:11;;;;;;;6.05;1.10;;;;;;;;;;5032445;28;20087;-56
2021/04/27 04:57:41;;;;;;;6.07;1.10;;;;;;;;;;5013800;28;22081;-56
2021/04/27 05:00:09;;;;;;;3.58;1.10;;;;;;;;;;5034213;28;20065;-56
2021/04/27 05:02:34;;;;;;;3.75;1.00;;;;;;;;;;5031661;28;20037;-56
2021/04/27 05:05:00;;;;;;;4.13;1.17;;;;;;;;;;5034035;28;20057;-53
2021/04/27 05:07:28;;;;;;;4.20;1.00;;;;;;;;;;5015227;28;20041;-56
2021/04/27 05:09:54;;;;;;;7.97;1.30;;;;;;;;;;5032019;28;20041;-56
2021/04/27 05:12:20;;;;;;;3.75;1.30;;;;;;;;;;5033275;28;20092;-56
2021/04/27 05:14:46;;;;;;;5.30;1.23;;;;;;;;;;5033542;28;20034;-56
2021/04/27 05:17:13;;;;;;;5.60;1.52;;;;;;;;;;5034765;28;20036;-57
2021/04/27 05:19:39;;;;;;;4.32;1.10;;;;;;;;;;5031100;28;20132;-56
2021/04/27 05:22:06;;;;;;;3.25;0.95;;;;;;;;;;5032542;28;20143;-56
2021/04/27 05:24:32;;;;;;;4.72;1.13;;;;;;;;;;5030147;28;20437;-54
2021/04/27 05:26:58;;;;;;;5.25;1.20;;;;;;;;;;5031004;28;20507;-55
2021/04/27 05:29:24;;;;;;;5.13;1.90;;;;;;;;;;5034051;28;20037;-56
2021/04/27 05:31:52;;;;;;;9.38;1.20;;;;;;;;;;5033616;28;20047;-57
2021/04/27 05:34:19;;;;;;;3.67;1.10;;;;;;;;;;5033046;28;20835;-57
2021/04/27 05:36:45;;;;;;;4.13;1.10;;;;;;;;;;5030978;28;20042;-55
2021/04/27 05:39:11;;;;;;;3.95;1.40;;;;;;;;;;5032327;28;20093;-58
2021/04/27 05:41:36;;;;;;;4.00;1.00;;;;;;;;;;5028997;28;20505;-59
2021/04/27 05:44:02;;;;;;;5.80;1.45;;;;;;;;;;5031435;28;20578;-56
2021/04/27 05:46:28;;;;;;;3.38;1.00;;;;;;;;;;5032415;28;20059;-56
2021/04/27 05:48:54;;;;;;;5.35;1.08;;;;;;;;;;5032676;28;20711;-56
2021/04/27 05:51:20;;;;;;;4.63;1.23;;;;;;;;;;5031309;28;20041;-57
2021/04/27 05:53:46;;;;;;;3.45;1.00;;;;;;;;;;5030219;28;20045;-57
2021/04/27 05:56:12;;;;;;;3.00;1.10;;;;;;;;;;5030648;28;20064;-57
2021/04/27 05:58:38;;;;;;;3.00;1.00;;;;;;;;;;5031259;28;20103;-57
2021/04/27 06:01:04;;;;;;;4.75;1.20;;;;;;;;;;5030170;28;20033;-58
2021/04/27 06:03:30;;;;;;;3.50;1.10;;;;;;;;;;5028089;28;20044;-57
2021/04/27 06:05:56;;;;;;;6.20;1.00;;;;;;;;;;5032023;28;20077;-57
2021/04/27 06:08:22;;;;;;;3.13;1.00;;;;;;;;;;5030657;28;20187;-56
2021/04/27 06:10:48;;;;;;;4.60;1.15;;;;;;;;;;5032184;28;20037;-56
2021/04/27 06:13:14;;;;;;;3.30;1.10;;;;;;;;;;5032208;28;20041;-56
2021/04/27 06:15:40;;;;;;;3.45;0.95;;;;;;;;;;5030336;28;20048;-57
2021/04/27 06:18:05;;;;;;;7.10;1.30;;;;;;;;;;5033666;28;20041;-58
2021/04/27 06:20:31;;;;;;;3.63;1.23;;;;;;;;;;5031017;28;20041;-57
2021/04/27 06:22:58;;;;;;;4.25;0.98;;;;;;;;;;5032021;28;20112;-57
2021/04/27 06:25:24;;;;;;;3.95;1.10;;;;;;;;;;5033456;28;20049;-57
2021/04/27 06:27:50;;;;;;;6.30;1.02;;;;;;;;;;5031794;28;20037;-56
2021/04/27 06:30:16;;;;;;;3.53;1.13;;;;;;;;;;5030869;28;20091;-57
2021/04/27 06:32:42;;;;;;;3.33;1.00;;;;;;;;;;5029860;28;20036;-56
2021/04/27 06:35:09;;;;;;;3.28;0.90;;;;;;;;;;5015999;28;20041;-54
2021/04/27 06:37:35;;;;;;;4.75;1.00;;;;;;;;;;5014806;28;20052;-57
2021/04/27 06:40:01;;;;;;;4.43;1.10;;;;;;;;;;5031028;28;20573;-57
2021/04/27 06:42:27;;;;;;;3.17;1.02;;;;;;;;;;5029197;28;20048;-57
2021/04/27 06:44:53;;;;;;;5.43;1.00;;;;;;;;;;5030347;28;20060;-56
2021/04/27 06:47:18;;;;;;;4.20;1.20;;;;;;;;;;5031386;28;20111;-55
2021/04/27 06:49:44;;;;;;;7.18;1.20;;;;;;;;;;5014537;28;20341;-57
2021/04/27 06:52:10;;;;;;;3.53;1.13;;;;;;;;;;5031008;28;20052;-56
2021/04/27 06:54:36;;;;;;;3.97;1.13;;;;;;;;;;5029508;28;20041;-57
2021/04/27 06:57:03;;;;;;;2.90;0.90;;;;;;;;;;5015712;28;20037;-57
2021/04/27 06:59:32;;;;;;;5.43;1.10;;;;;;;;;;5029353;28;20085;-57
2021/04/27 07:02:08;;;;;;;3.17;0.90;;;;;;;;;;5030266;28;20143;-58
2021/04/27 07:04:35;;;;;;;3.42;1.00;;;;;;;;;;5013512;28;20403;-54
2021/04/27 07:07:01;;;;;;;3.15;1.13;;;;;;;;;;5030165;28;20053;-56
2021/04/27 07:09:27;;;;;;;3.67;1.27;;;;;;;;;;5013137;28;20037;-57
2021/04/27 07:11:53;;;;;;;3.60;1.00;;;;;;;;;;5031911;28;20056;-57
2021/04/27 07:14:19;;;;;;;4.05;1.20;;;;;;;;;;5010921;28;20096;-56
2021/04/27 07:16:45;;;;;;;4.43;1.05;;;;;;;;;;5029113;28;20049;-56
2021/04/27 07:19:11;;;;;;;6.85;0.90;;;;;;;;;;5029596;28;20488;-56
2021/04/27 07:21:39;;;;;;;5.47;1.13;;;;;;;;;;5029027;28;20033;-56
2021/04/27 07:24:05;;;;;;;6.88;1.25;;;;;;;;;;5030144;28;20041;-56
2021/04/27 07:26:31;;;;;;;4.00;1.00;;;;;;;;;;5029734;28;20057;-55
2021/04/27 07:28:57;;;;;;;5.38;1.02;;;;;;;;;;5030695;28;20041;-56
2021/04/27 07:31:23;;;;;;;3.92;1.00;;;;;;;;;;5031239;28;20053;-56
2021/04/27 07:33:49;;;;;;;4.45;1.27;;;;;;;;;;5030654;28;20168;-56
2021/04/27 07:36:17;;;;;;;3.30;1.00;;;;;;;;;;5030033;28;20449;-56
2021/04/27 07:38:43;;;;;;;3.20;0.95;;;;;;;;;;5030454;28;22693;-56
2021/04/27 07:41:09;;;;;;;4.85;1.10;;;;;;;;;;5007533;28;20041;-55
2021/04/27 07:43:35;;;;;;;5.30;1.15;;;;;;;;;;5026829;28;20458;-57
2021/04/27 07:46:01;;;;;;;3.75;1.15;;;;;;;;;;5029450;28;20060;-57
2021/04/27 07:48:27;;;;;;;3.88;1.05;;;;;;;;;;5030718;28;20039;-56
2021/04/27 07:50:53;;;;;;;4.55;1.00;;;;;;;;;;5029379;28;20036;-56
2021/04/27 07:53:19;;;;;;;3.22;0.93;;;;;;;;;;5031352;28;20124;-55
2021/04/27 07:55:45;;;;;;;3.28;1.00;;;;;;;;;;5029770;28;20045;-55
2021/04/27 07:58:11;;;;;;;3.15;0.90;;;;;;;;;;5031646;28;20038;-57
2021/04/27 08:00:37;;;;;;;3.60;1.17;;;;;;;;;;5028658;28;20029;-57
2021/04/27 08:03:03;;;;;;;4.35;1.27;;;;;;;;;;5029026;28;22079;-56
2021/04/27 08:05:28;;;;;;;4.32;1.10;;;;;;;;;;5029158;28;20049;-56
2021/04/27 08:07:54;;;;;;;4.43;1.10;;;;;;;;;;5028322;28;20048;-56
2021/04/27 08:10:20;;;;;;;3.53;0.98;;;;;;;;;;5029009;28;20037;-56
2021/04/27 08:12:47;;;;;;;6.63;1.30;;;;;;;;;;5028438;28;20503;-55
2021/04/27 08:15:14;;;;;;;4.82;1.20;;;;;;;;;;5029071;28;20045;-55
2021/04/27 08:17:40;;;;;;;3.55;0.98;;;;;;;;;;5029347;28;20045;-56
2021/04/27 08:20:08;;;;;;;7.10;1.52;;;;;;;;;;5033074;28;20033;-57
2021/04/27 08:22:34;;;;;;;4.05;1.40;;;;;;;;;;5023929;28;20045;-55
2021/04/27 08:25:00;;;;;;;4.60;1.10;;;;;;;;;;5034215;28;20399;-55
2021/04/27 08:27:26;;;;;;;5.03;1.20;;;;;;;;;;5034548;28;20053;-56
2021/04/27 08:29:52;;;;;;;3.63;1.10;;;;;;;;;;5034106;28;20037;-54
2021/04/27 08:32:18;;;;;;;3.72;1.02;;;;;;;;;;5031810;28;20047;-57
2021/04/27 08:34:45;;;;;;;4.60;1.30;;;;;;;;;;5034736;28;20033;-57
2021/04/27 08:37:10;;;;;;;4.80;1.20;;;;;;;;;;5034673;28;20055;-55
2021/04/27 08:39:36;;;;;;;2.90;1.00;;;;;;;;;;5034759;28;20530;-54
2021/04/27 08:42:03;;;;;;;4.63;0.93;;;;;;;;;;5033225;28;20501;-54
2021/04/27 08:44:29;;;;;;;6.32;1.20;;;;;;;;;;5031902;28;20910;-57
2021/04/27 08:46:55;;;;;;;4.47;1.10;;;;;;;;;;5032871;28;20045;-56
2021/04/27 08:49:21;;;;;;;4.68;1.23;;;;;;;;;;5032086;28;20048;-56
2021/04/27 08:51:47;;;;;;;5.07;1.10;;;;;;;;;;5034774;28;20036;-57
2021/04/27 08:54:13;;;;;;;4.57;1.27;;;;;;;;;;5033880;28;20910;-56
2021/04/27 08:56:39;;;;;;;7.13;1.15;;;;;;;;;;5031326;28;20055;-55
2021/04/27 08:59:05;;;;;;;4.68;1.30;;;;;;;;;;5033481;28;20610;-55
2021/04/27 09:01:31;;;;;;;3.20;1.25;;;;;;;;;;5032589;28;20216;-55
2021/04/27 09:03:59;;;;;;;8.35;1.20;;;;;;;;;;5033107;28;20065;-56
2021/04/27 09:06:25;;;;;;;9.88;1.40;;;;;;;;;;5032760;28;20053;-54
2021/04/27 09:08:53;;;;;;;11.95;1.70;;;;;;;;;;5032044;28;20041;-56
2021/04/27 09:11:25;;;;;;;7.55;1.40;;;;;;;;;;5031245;28;20044;-57
2021/04/27 09:14:09;;;;;;;6.50;1.92;;;;;;;;;;5031456;28;20198;-56
2021/04/27 09:16:35;;;;;;;12.65;2.40;;;;;;;;;;5031352;28;20123;-56
2021/04/27 09:19:01;;;;;;;6.95;2.30;;;;;;;;;;5032390;28;20068;-57
2021/04/27 09:21:38;;;;;;;7.90;2.30;;;;;;;;;;5031651;28;20042;-55
2021/04/27 09:24:15;;;;;;;7.38;1.88;;;;;;;;;;5031148;28;20052;-56
2021/04/27 09:26:42;;;;;;;6.80;2.65;;;;;;;;;;5015126;28;20041;-56
2021/04/27 09:29:07;;;;;;;10.40;3.78;;;;;;;;;;5036820;28;20052;-57
2021/04/27 09:31:34;;;;;;;9.32;2.95;;;;;;;;;;5036294;28;20041;-54
2021/04/27 09:34:19;;;;;;;7.18;2.53;;;;;;;;;;5035581;28;20028;-56
2021/04/27 09:36:45;;;;;;;6.68;1.83;;;;;;;;;;5035111;28;20033;-56
2021/04/27 09:39:12;;;;;;;4.90;1.50;;;;;;;;;;5037230;28;20568;-54
2021/04/27 09:41:38;;;;;;;4.65;1.70;;;;;;;;;;5035641;28;20183;-55
2021/04/27 09:44:04;;;;;;;7.15;2.95;;;;;;;;;;5033619;28;20041;-55
2021/04/27 09:46:30;;;;;;;5.50;2.67;;;;;;;;;;5035502;28;20049;-55
2021/04/27 09:49:00;;;;;;;6.70;3.13;;;;;;;;;;5035196;28;20048;-53
2021/04/27 09:51:30;;;;;;;5.20;1.90;;;;;;;;;;5032799;28;20060;-54
2021/04/27 09:54:00;;;;;;;5.35;1.73;;;;;;;;;;5032878;28;20053;-56
2021/04/27 09:56:48;;;;;;;8.82;1.58;;;;;;;;;;5033538;28;20036;-54
2021/04/27 09:59:16;;;;;;;9.45;1.65;;;;;;;;;;5033140;28;20091;-56
2021/04/27 10:01:46;;;;;;;6.88;1.50;;;;;;;;;;5033442;28;20068;-54
2021/04/27 10:04:12;;;;;;;5.93;1.30;;;;;;;;;;5034499;28;20725;-56
2021/04/27 10:06:41;;;;;;;4.10;1.40;;;;;;;;;;5034643;28;20061;-56
2021/04/27 10:09:07;;;;;;;14.52;2.85;;;;;;;;;;5034607;28;20064;-54
2021/04/27 10:11:34;;;;;;;23.77;2.38;;;;;;;;;;5034114;28;20763;-57
2021/04/27 10:14:00;;;;;;;21.33;3.08;;;;;;;;;;5031715;28;20060;-56
2021/04/27 10:16:26;;;;;;;14.38;2.75;;;;;;;;;;5033205;28;20029;-54
2021/04/27 10:18:55;;;;;;;21.35;2.58;;;;;;;;;;5034596;28;20082;-55
2021/04/27 10:21:21;;;;;;;12.88;2.00;;;;;;;;;;5031349;28;20040;-56
2021/04/27 10:23:53;;;;;;;15.43;2.15;;;;;;;;;;5032564;28;20124;-56
2021/04/27 10:26:23;;;;;;;15.10;2.03;;;;;;;;;;5032206;28;21251;-52
2021/04/27 10:29:08;;;;;;;12.10;1.70;;;;;;;;;;5033768;28;20104;-56
2021/04/27 10:31:35;;;;;;;17.23;2.05;;;;;;;;;;5032333;28;20513;-56
2021/04/27 10:34:15;;;;;;;11.85;2.20;;;;;;;;;;5033400;28;20052;-57
2021/04/27 10:36:50;;;;;;;11.88;1.55;;;;;;;;;;5032100;28;20040;-54
2021/04/27 10:39:17;;;;;;;11.85;1.90;;;;;;;;;;5031790;28;20055;-58
2021/04/27 10:41:47;;;;;;;7.22;1.88;;;;;;;;;;5032556;28;20029;-55
2021/04/27 10:44:15;;;;;;;10.43;1.70;;;;;;;;;;5031951;28;20072;-56
2021/04/27 10:46:40;;;;;;;6.13;1.30;;;;;;;;;;5032243;28;20497;-56
2021/04/27 10:49:10;;;;;;;11.75;1.60;;;;;;;;;;5034222;28;20115;-57
2021/04/27 10:51:38;;;;;;;6.32;1.48;;;;;;;;;;5032909;28;20137;-56
2021/04/27 10:54:04;;;;;;;6.25;1.40;;;;;;;;;;5031734;28;20092;-55
2021/04/27 10:56:36;;;;;;;6.57;1.60;;;;;;;;;;5031711;28;20052;-56
2021/04/27 10:59:06;;;;;;;3.97;1.50;;;;;;;;;;5032432;28;20067;-57
2021/04/27 11:01:32;;;;;;;9.85;1.40;;;;;;;;;;5032095;28;20033;-52
2021/04/27 11:03:58;;;;;;;8.80;1.52;;;;;;;;;;5032190;28;20091;-55
2021/04/27 11:06:24;;;;;;;7.55;1.70;;;;;;;;;;5032991;28;20064;-55
2021/04/27 11:08:54;;;;;;;3.55;1.27;;;;;;;;;;5032944;28;20041;-55
2021/04/27 11:11:27;;;;;;;7.70;1.48;;;;;;;;;;5015910;28;20044;-56
2021/04/27 11:14:17;;;;;;;5.75;1.38;;;;;;;;;;5013763;28;20421;-53
2021/04/27 11:16:46;;;;;;;5.30;1.27;;;;;;;;;;5032510;28;20091;-56
2021/04/27 11:19:23;;;;;;;5.13;1.60;;;;;;;;;;5047638;28;20049;-54
2021/04/27 11:21:51;;;;;;;7.75;1.30;;;;;;;;;;5030286;28;20065;-54
2021/04/27 11:24:32;;;;;;;12.52;1.65;;;;;;;;;;5032865;28;20045;-56
2021/04/27 11:26:59;;;;;;;10.43;2.33;;;;;;;;;;5033364;28;20049;-54
2021/04/27 11:29:29;;;;;;;9.90;1.77;;;;;;;;;;5033015;28;20036;-56
2021/04/27 11:32:12;;;;;;;9.52;1.85;;;;;;;;;;5033040;28;21107;-53
2021/04/27 11:34:55;;;;;;;10.93;1.73;;;;;;;;;;5032906;28;20037;-55
2021/04/27 11:37:21;;;;;;;17.77;1.85;;;;;;;;;;5033007;28;20111;-55
2021/04/27 11:39:47;;;;;;;7.25;1.52;;;;;;;;;;5031981;28;20045;-56
2021/04/27 11:42:12;;;;;;;8.23;1.83;;;;;;;;;;5032415;28;20049;-56
2021/04/27 11:44:42;;;;;;;6.13;1.52;;;;;;;;;;5033119;28;20056;-57
2021/04/27 11:47:08;;;;;;;10.70;1.50;;;;;;;;;;5033804;28;20041;-55
2021/04/27 11:49:56;;;;;;;7.38;1.50;;;;;;;;;;5032825;28;20075;-55
2021/04/27 11:52:44;;;;;;;7.80;1.33;;;;;;;;;;5033228;28;20033;-56
2021/04/27 11:55:23;;;;;;;8.50;1.40;;;;;;;;;;5023817;28;20622;-57
2021/04/27 11:57:51;;;;;;;4.32;1.35;;;;;;;;;;5038266;28;20060;-57
2021/04/27 12:00:18;;;;;;;5.68;1.50;;;;;;;;;;5036420;28;20518;-56
2021/04/27 12:02:44;;;;;;;5.30;1.40;;;;;;;;;;5018166;28;20431;-53
2021/04/27 12:05:10;;;;;;;6.90;1.52;;;;;;;;;;5035474;28;20056;-56
2021/04/27 12:07:36;;;;;;;3.80;1.50;;;;;;;;;;5036973;28;20527;-54
2021/04/27 12:10:03;;;;;;;7.70;1.77;;;;;;;;;;5036442;28;20083;-54
2021/04/27 12:12:29;;;;;;;12.32;2.28;;;;;;;;;;5034432;28;20167;-54
2021/04/27 12:14:56;;;;;;;9.70;1.75;;;;;;;;;;5038093;28;20083;-57
2021/04/27 12:17:32;;;;;;;9.32;1.85;;;;;;;;;;5021102;28;20052;-57
2021/04/27 12:20:18;;;;;;;8.55;1.55;;;;;;;;;;5037402;28;20064;-55
2021/04/27 12:22:44;;;;;;;3.88;1.40;;;;;;;;;;5035807;28;20129;-56
2021/04/27 12:25:28;;;;;;;8.00;1.05;;;;;;;;;;5037237;28;20530;-56
2021/04/27 12:28:01;;;;;;;14.00;1.95;;;;;;;;;;5036956;28;20053;-57
2021/04/27 12:30:28;;;;;;;7.13;1.25;;;;;;;;;;5035418;28;20369;-57
2021/04/27 12:35:52;;;;;;;11.10;1.55;;;;;;;;;;5022053;28;20586;-55
2021/04/27 12:38:18;;;;;;;11.30;1.77;;;;;;;;;;5035986;28;20037;-56
2021/04/27 12:40:50;;;;;;;9.60;1.73;;;;;;;;;;5036755;28;20415;-56
2021/04/27 12:43:16;;;;;;;9.52;1.60;;;;;;;;;;5038992;28;20495;-57
2021/04/27 12:45:56;;;;;;;10.90;1.85;;;;;;;;;;5035092;28;20049;-56
2021/04/27 12:48:22;;;;;;;10.77;2.15;;;;;;;;;;5020211;28;20049;-57
2021/04/27 12:50:53;;;;;;;7.43;1.63;;;;;;;;;;5036625;28;20147;-54
2021/04/27 12:53:19;;;;;;;6.13;1.65;;;;;;;;;;5035568;28;20714;-55
2021/04/27 12:55:50;;;;;;;13.80;1.67;;;;;;;;;;5037449;28;20135;-53
2021/04/27 12:58:17;;;;;;;10.07;1.45;;;;;;;;;;5035952;28;20029;-53
2021/04/27 13:01:05;;;;;;;10.88;1.73;;;;;;;;;;5036379;28;20791;-56
2021/04/27 13:03:56;;;;;;;5.47;1.42;;;;;;;;;;5016951;28;20175;-55
2021/04/27 13:06:22;;;;;;;9.60;1.80;;;;;;;;;;5034753;28;20049;-53
2021/04/27 13:09:07;;;;;;;10.75;2.03;;;;;;;;;;5033338;28;20394;-56
2021/04/27 13:11:33;;;;;;;12.88;1.85;;;;;;;;;;5031465;28;20558;-57
2021/04/27 13:14:16;;;;;;;11.80;1.83;;;;;;;;;;5035673;28;20041;-54
2021/04/27 13:16:42;;;;;;;;;;;;;;;;;;5035314;28;20029;-54
2021/04/27 13:19:08;;;;;;;14.25;1.90;;;;;;;;;;5034114;28;20731;-54
2021/04/27 13:21:33;;;;;;;9.60;1.65;;;;;;;;;;5033177;28;20044;-56
2021/04/27 13:24:12;;;;;;;11.35;1.95;;;;;;;;;;5033837;28;20105;-54
2021/04/27 13:26:38;;;;;;;8.82;1.45;;;;;;;;;;5034009;28;20470;-57
2021/04/27 13:29:04;;;;;;;11.07;1.80;;;;;;;;;;5034529;28;20041;-56
2021/04/27 13:31:30;;;;;;;11.82;2.45;;;;;;;;;;5032560;28;20085;-56
2021/04/27 13:33:56;;;;;;;7.15;1.73;;;;;;;;;;5031144;28;20049;-57
2021/04/27 13:36:22;;;;;;;8.13;1.75;;;;;;;;;;5035398;28;20033;-55
2021/04/27 13:38:49;;;;;;;15.13;1.95;;;;;;;;;;5037071;28;20696;-56
2021/04/27 13:41:15;;;;;;;5.28;1.58;;;;;;;;;;5036079;28;20544;-54
2021/04/27 13:43:44;;;;;;;10.40;1.52;;;;;;;;;;5036678;28;20067;-56
2021/04/27 13:46:12;;;;;;;4.78;1.38;;;;;;;;;;5034991;28;20057;-56
2021/04/27 13:48:38;;;;;;;8.60;1.52;;;;;;;;;;5033375;28;20503;-55
2021/04/27 13:51:07;;;;;;;6.75;1.20;;;;;;;;;;5007922;28;20055;-56
2021/04/27 13:53:33;;;;;;;6.85;1.50;;;;;;;;;;5026116;28;20251;-56
2021/04/27 13:56:00;;;;;;;6.07;1.20;;;;;;;;;;5031003;28;20052;-56
2021/04/27 13:58:30;;;;;;;8.27;1.30;;;;;;;;;;5026775;28;20124;-56
2021/04/27 14:00:56;;;;;;;7.30;1.52;;;;;;;;;;5025254;28;20037;-55
2021/04/27 14:03:22;;;;;;;4.68;1.30;;;;;;;;;;5025158;28;20056;-55
2021/04/27 14:05:49;;;;;;;5.30;1.48;;;;;;;;;;5024636;28;20033;-54
2021/04/27 14:08:15;;;;;;;6.13;1.20;;;;;;;;;;5024913;28;20036;-55
2021/04/27 14:10:41;;;;;;;8.30;1.25;;;;;;;;;;5022898;28;20048;-55
2021/04/27 14:13:08;;;;;;;4.55;1.20;;;;;;;;;;5024594;28;20036;-54
2021/04/27 14:15:35;;;;;;;5.45;1.33;;;;;;;;;;5023046;28;20127;-56
2021/04/27 14:18:02;;;;;;;7.43;1.20;;;;;;;;;;5005009;28;22212;-55
2021/04/27 14:20:29;;;;;;;7.50;1.20;;;;;;;;;;5018689;28;20087;-55
2021/04/27 14:22:56;;;;;;;6.22;1.30;;;;;;;;;;5019893;28;20926;-54
2021/04/27 14:25:22;;;;;;;5.32;1.80;;;;;;;;;;5020213;28;20430;-55
2021/04/27 14:27:48;;;;;;;6.80;1.48;;;;;;;;;;5020915;28;20309;-55
2021/04/27 14:30:17;;;;;;;6.40;1.50;;;;;;;;;;5011426;28;21806;-56
2021/04/27 14:32:44;;;;;;;6.03;1.40;;;;;;;;;;5020076;28;20052;-56
2021/04/27 14:35:12;;;;;;;6.00;1.30;;;;;;;;;;5020360;28;20168;-56
2021/04/27 14:37:38;;;;;;;5.38;1.35;;;;;;;;;;5020996;28;20050;-55
2021/04/27 14:40:05;;;;;;;8.43;1.77;;;;;;;;;;5034321;28;20401;-56
2021/04/27 14:42:31;;;;;;;15.10;1.52;;;;;;;;;;5019234;28;20084;-56
2021/04/27 14:44:57;;;;;;;5.95;1.90;;;;;;;;;;5021483;28;20127;-55
2021/04/27 14:47:22;;;;;;;5.93;1.40;;;;;;;;;;5020716;28;20044;-56